Flight Track Log - Related Links

Times and Time Zones

All times are in EST time to prevent confusion due to time zone crossing. See the N2876Q flight status page for this flight to view local times or setup timezone preferences in your user account.

Time Position Orientation Groundspeed Altitude Reporting Facility
EST Latitude Longitude Course Direction KTS MPH feet Rate Location/Type
Sun 09:32:27 PM 36.8167 -89.5536 120° Southeast 123 142 5,500  Level Memphis Center
Sun 09:33:27 PM 36.7853 -89.5408 162° South 123 142 5,400 -50 Descending Memphis Center
Sun 09:34:27 PM 36.7539 -89.5206 153° Southeast 123 142 5,400  Level Memphis Center
Sun 09:35:27 PM 36.7228 -89.5131 169° South 123 142 5,400  Level Memphis Center
Sun 09:36:27 PM 36.6894 -89.5083 174° South 123 142 5,400 49 Level Memphis Center
Sun 09:37:00 PM -19.8741 -160.2296 120° Southeast  Level Estimated
Sun 09:37:29 PM 36.6561 -89.5136 187° South 123 142 5,500  Level Memphis Center
Sun 09:38:27 PM 36.6228 -89.5244 195° South 123 142 5,500 51 Level Memphis Center
Sun 09:39:27 PM 36.5917 -89.5428 205° Southwest 123 142 5,600 50 Climbing Memphis Center
Sun 09:40:27 PM 36.5583 -89.5586 201° Southwest 128 147 5,600  Level Memphis Center
Sun 09:41:27 PM 36.5250 -89.5694 195° South 128 147 5,600 -50 Level Memphis Center
Sun 09:42:27 PM 36.4897 -89.5697 180° South 128 147 5,500 -50 Descending Memphis Center
Sun 09:43:27 PM 36.4542 -89.5675 177° South 123 142 5,500  Level Memphis Center
Sun 09:44:27 PM 36.4208 -89.5678 180° South 123 142 5,500 -50 Level Memphis Center
Sun 09:45:27 PM 36.3875 -89.5603 170° South 123 142 5,400 -100 Descending Memphis Center
Sun 09:46:27 PM 36.3581 -89.5478 161° South 123 142 5,300 -50 Descending Memphis Center
Sun 09:47:27 PM 36.3289 -89.5325 157° South 123 142 5,300  Level Memphis Center
Sun 09:48:27 PM 36.2997 -89.5200 161° South 123 142 5,300 50 Level Memphis Center
Sun 09:49:27 PM 36.2703 -89.5050 158° South 123 142 5,400 50 Climbing Memphis Center
Sun 09:50:27 PM 36.2431 -89.4922 159° South 112 129 5,400 50 Level Memphis Center
Sun 09:51:27 PM 36.2139 -89.4797 161° South 112 129 5,500 50 Climbing Memphis Center
Sun 09:52:27 PM 36.1825 -89.4697 166° South 112 129 5,500 50 Level Memphis Center
Sun 09:53:27 PM 36.1469 -89.4703 181° South 119 137 5,600 50 Climbing Memphis Center
Sun 09:54:27 PM 36.1117 -89.4681 177° South 124 143 5,600  Level Memphis Center
Sun 09:55:27 PM 36.0761 -89.4633 174° South 124 143 5,600  Level Memphis Center
Sun 09:56:27 PM 36.0406 -89.4661 184° South 129 148 5,600 -50 Level Memphis Center
Sun 09:57:27 PM 36.0031 -89.4692 184° South 129 148 5,500 -100 Descending Memphis Center
Sun 09:58:27 PM 35.9678 -89.4772 190° South 129 148 5,400 -100 Descending Memphis Center
Sun 09:59:27 PM 35.9325 -89.4828 187° South 134 154 5,300 -100 Descending Memphis Center
Sun 10:00:27 PM 35.8969 -89.4908 190° South 134 154 5,200 -50 Descending Memphis Center
Sun 10:01:27 PM 35.8636 -89.4989 191° South 129 148 5,200 50 Level Memphis Center
Sun 10:02:27 PM 35.8325 -89.5019 185° South 122 140 5,300 50 Climbing Memphis Center
Sun 10:03:27 PM 35.7989 -89.4969 173° South 122 140 5,300  Level Memphis Center
Sun 10:04:27 PM 35.7678 -89.4872 166° South 122 140 5,300  Level Memphis Center
Sun 10:05:27 PM 35.7364 -89.4797 169° South 122 140 5,300 -50 Level Memphis Center
Sun 10:06:27 PM 35.7031 -89.4750 173° South 122 140 5,200 -50 Descending Memphis Center
Sun 10:07:27 PM 35.6778 -89.4728 176° South 115 132 5,200  Level Memphis Center
Sun 10:08:27 PM 35.6425 -89.4731 180° South 115 132 5,200  Level Memphis Center
Sun 10:09:27 PM 35.6092 -89.4708 177° South 115 132 5,200  Level Memphis Center
Sun 10:10:27 PM 35.5756 -89.4714 181° South 122 140 5,200 50 Level Memphis Center
Sun 10:11:27 PM 35.5422 -89.4742 184° South 122 140 5,300  Climbing Memphis Center
Sun 10:12:27 PM 35.5111 -89.4769 184° South 122 140 5,200 -150 Descending Memphis Center
Sun 10:13:27 PM 35.4756 -89.4750 177° South 122 140 5,000 -350 Descending Memphis Center
Sun 10:14:27 PM 35.4422 -89.4728 177° South 122 140 4,500 -550 Descending Memphis Center
Sun 10:15:27 PM 35.4150 -89.4653 167° South 110 127 3,900 -750 Descending Memphis Center
Sun 10:16:27 PM 35.3919 -89.4606 171° South 99 114 3,000 -800 Descending Memphis Center
Sun 10:17:27 PM 35.3733 -89.4506 156° South 93 107 2,300 -850 Descending Memphis Center
Sun 10:18:27 PM 35.3689 -89.4328 107° East 70 81 1,300 -346 Descending Memphis Center
Sun 10:20:38 PM 35.3833 -89.4333 358° North 79 91 1,200 -24 Descending KMEM
Sun 10:22:38 PM 35.3833 -89.4333 321° Northwest 79 91 1,200  Level KMEM
Sun 10:24:38 PM 35.3833 -89.4333 321° Northwest 79 91 1,200  Level KMEM
Sun 10:26:38 PM 35.3833 -89.4333 321° Northwest 79 91 1,200  Level KMEM
Sun 10:28:38 PM 35.3833 -89.4333 321° Northwest 79 91 1,200  Level KMEM
Sun 10:30:38 PM 35.3833 -89.4333 321° Northwest 79 91 1,200  Level KMEM
Sun 10:32:38 PM 35.3833 -89.4333 321° Northwest 79 91 1,200  Level KMEM
Sun 10:34:38 PM 35.3833 -89.4333 321° Northwest 79 91 1,200  Level KMEM
Sun 10:36:38 PM 35.3833 -89.4333 321° Northwest 79 91 1,200  Level KMEM
Sun 10:38:38 PM 35.3833 -89.4333 321° Northwest 79 91 1,200  Level KMEM
Sun 10:40:32 PM 35.3833 -89.4333 321° Northwest 79 91 1,200  Level KMEM
Sun 10:42:38 PM 35.3833 -89.4333 321° Northwest 79 91 1,200  Level KMEM
Sun 10:44:38 PM 35.3833 -89.4333 321° Northwest 79 91 1,200  Level KMEM
Sun 10:46:38 PM 35.3833 -89.4333 321° Northwest 79 91 1,200  Level KMEM
Sun 10:48:38 PM 35.3833 -89.4333 321° Northwest 79 91 1,200  Level KMEM
Sun 10:50:38 PM 35.3833 -89.4333 321° Northwest 79 91 1,200  Level KMEM
Sun 10:52:38 PM 35.3833 -89.4333 321° Northwest 79 91 1,200  Level KMEM
Sun 10:54:32 PM 35.3833 -89.4333 321° Northwest 79 91 1,200  Level KMEM
Sun 10:56:32 PM 35.3833 -89.4333 321° Northwest 79 91 1,200  Level KMEM
Sun 10:58:32 PM 35.3833 -89.4333 321° Northwest 79 91 1,200  Level KMEM
Sun 11:00:32 PM 35.3833 -89.4333 321° Northwest 79 91 1,200  Level KMEM
Sun 11:02:32 PM 35.3833 -89.4333 321° Northwest 79 91 1,200  Level KMEM
Sun 11:04:38 PM 35.3833 -89.4333 321° Northwest 79 91 1,200  Level KMEM
Sun 11:06:38 PM 35.3833 -89.4333 321° Northwest 79 91 1,200  Level KMEM
Sun 11:08:38 PM 35.3833 -89.4333 321° Northwest 79 91 1,200  Level KMEM
Sun 11:10:38 PM 35.3833 -89.4333 321° Northwest 79 91 1,200  Level KMEM
Sun 11:12:38 PM 35.3833 -89.4333 321° Northwest 79 91 1,200  Level KMEM
Sun 11:14:44 PM 35.3833 -89.4333 321° Northwest 79 91 1,200  Level KMEM
Sun 11:16:44 PM 35.3833 -89.4333 321° Northwest 79 91 1,200  Level KMEM
Sun 11:18:38 PM 35.3833 -89.4333 321° Northwest 79 91 1,200  Level KMEM
Sun 11:20:38 PM 35.3833 -89.4333 321° Northwest 79 91 1,200  Level KMEM
Sun 11:22:38 PM 35.3833 -89.4333 321° Northwest 79 91 1,200  Level KMEM
Sun 11:24:38 PM 35.3833 -89.4333 321° Northwest 79 91 1,200  Level KMEM
Sun 11:26:38 PM 35.3833 -89.4333 321° Northwest 79 91 1,200  Level KMEM
Sun 11:28:38 PM 35.3833 -89.4333 321° Northwest 79 91 1,200  Level KMEM
Sun 11:30:32 PM 35.3833 -89.4333 321° Northwest 79 91 1,200  Level KMEM
Sun 11:32:32 PM 35.3833 -89.4333 321° Northwest 79 91 1,200  Level KMEM
Sun 11:34:32 PM 35.3833 -89.4333 321° Northwest 79 91 1,200  Level KMEM
Sun 11:36:32 PM 35.3833 -89.4333 321° Northwest 79 91 1,200  Level KMEM
Sun 11:38:32 PM 35.3833 -89.4333 321° Northwest 79 91 1,200  Level KMEM
Sun 11:40:32 PM 35.3833 -89.4333 321° Northwest 79 91 1,200  Level KMEM
Sun 11:42:32 PM 35.3833 -89.4333 321° Northwest 79 91 1,200  Level KMEM
Sun 11:44:32 PM 35.3833 -89.4333 321° Northwest 79 91 1,200  Level KMEM
Sun 11:46:32 PM 35.3833 -89.4333 321° Northwest 79 91 1,200  Level KMEM
Sun 11:48:32 PM 35.3833 -89.4333 321° Northwest 79 91 1,200  Level KMEM
Sun 11:50:32 PM 35.3833 -89.4333 321° Northwest 79 91 1,200  Level KMEM
Sun 11:52:00 PM 35.3352 -89.4196 167° South  Level FlightAware Approximate

Login

Don't have an account? Register now (free) for customized features, flight alerts, and more!